Plymouth, NH

5:26 PM EST on December 17, 2017 (GMT -0500)
Plymouth

Weather History for K1P1 - February, 2012

Change the Weather History Date:

Monday, February 20, 2012

  Actual Average (KLCI) Record (KLCI)
Temperature  
Mean Temperature 28 °F -  
Max Temperature 33 °F 38 °F 53 °F (2016)
Min Temperature 23 °F 16 °F -15 °F (1993)
Degree Days  
Heating Degree Days 37    
Moisture  
Dew Point 12 °F    
Average Humidity 54    
Maximum Humidity 67    
Minimum Humidity 37    
Precipitation  
Precipitation 0.00 in - - ()
Sea Level Pressure  
Sea Level Pressure 30.09 in    
Wind  
Wind Speed 10 mph (WNW)    
Max Wind Speed 20 mph    
Max Gust Speed 32 mph    
Visibility 10 miles    
Events      
Averages and records for this station are not official NWS values.
T = Trace of Precipitation, MM = Missing Value Source: NWS Daily Summary

Daily Weather History Graph

Daily Weather History Graph

Search for Another Location

Airport or City:

Trip Planner

Search our weather history database for the weather conditions in past years. The results will help you decide how hot, cold, wet, or windy it might be!

Date:

Astronomy

Feb. 20, 2012 Rise Set
Actual Time 6:39 AM EST 5:23 PM EST
Civil Twilight 6:09 AM EST 5:52 PM EST
Nautical Twilight 5:36 AM EST 6:25 PM EST
Astronomical Twilight 5:03 AM EST 6:59 PM EST
Moon 5:35 AM EST (2/20) 4:24 PM EST (2/20)
Length of Visible Light 11h 42m
Length of Day
10h 44m
Waning Crescent, 2% of the Moon is Illuminated
Feb 20
Waning Crescent
Feb 21
New
Feb 29
First Quarter
Mar 8
Full
Mar 14
Last Quarter

Hourly Weather History & Observations

Time (EST) Temp. Windchill Dew Point Humidity Pressure Visibility Wind Dir Wind Speed Gust Speed Precip Events Conditions
12:15 AM 25.7 °F 18.0 °F 15.1 °F 64% 30.02 in 10.0 mi NNW 6.9 mph - N/A   Clear
12:35 AM 25.7 °F 19.0 °F 15.4 °F 65% 30.02 in 10.0 mi NW 5.8 mph - N/A   Clear
12:55 AM 25.5 °F 16.9 °F 15.4 °F 66% 30.01 in 10.0 mi WNW 8.1 mph - N/A   Clear
1:15 AM 25.3 °F 18.5 °F 15.3 °F 66% 30.02 in 10.0 mi NNW 5.8 mph - N/A   Clear
1:35 AM 24.8 °F 17.9 °F 14.9 °F 66% 30.01 in 10.0 mi North 5.8 mph - N/A   Clear
1:55 AM 24.8 °F 20.5 °F 14.7 °F 66% 30.01 in 10.0 mi NW 3.5 mph - N/A   Clear
2:15 AM 24.8 °F 19.1 °F 14.7 °F 66% 30.00 in 10.0 mi WNW 4.6 mph - N/A   Clear
2:35 AM 24.6 °F 15.8 °F 14.4 °F 65% 30.00 in 10.0 mi WNW 8.1 mph - N/A   Clear
2:55 AM 24.4 °F 15.6 °F 14.4 °F 66% 30.00 in 10.0 mi West 8.1 mph - N/A   Clear
3:15 AM 24.8 °F 14.0 °F 14.0 °F 64% 30.00 in 10.0 mi WNW 11.5 mph 21.9 mph N/A   Clear
3:35 AM 24.3 °F 13.3 °F 14.4 °F 66% 30.01 in 10.0 mi West 11.5 mph 23.0 mph N/A   Clear
3:55 AM 24.3 °F 14.6 °F 14.4 °F 66% 30.01 in 10.0 mi WNW 9.2 mph 20.7 mph N/A   Clear
4:15 AM 24.4 °F 11.5 °F 13.8 °F 64% 30.00 in 10.0 mi NW 16.1 mph 21.9 mph N/A   Clear
4:35 AM 24.6 °F 12.7 °F 13.8 °F 64% 30.01 in 10.0 mi WNW 13.8 mph 25.3 mph N/A   Clear
4:55 AM 23.7 °F 12.1 °F 14.4 °F 67% 30.02 in 10.0 mi West 12.7 mph 21.9 mph N/A   Clear
5:15 AM 23.9 °F 10.8 °F 13.6 °F 65% 30.02 in 10.0 mi West 16.1 mph 20.7 mph N/A   Clear
5:35 AM 23.9 °F 12.9 °F 13.1 °F 63% 30.02 in 10.0 mi West 11.5 mph 20.7 mph N/A   Clear
5:55 AM 23.5 °F 11.3 °F 13.1 °F 64% 30.02 in 10.0 mi West 13.8 mph 18.4 mph N/A   Clear
6:15 AM 23.7 °F 12.1 °F 12.4 °F 62% 30.02 in 10.0 mi West 12.7 mph 18.4 mph N/A   Clear
6:35 AM 23.7 °F 14.0 °F 11.7 °F 60% 30.03 in 10.0 mi West 9.2 mph 21.9 mph N/A   Clear
6:55 AM 23.0 °F 13.9 °F 12.0 °F 63% 30.04 in 10.0 mi West 8.1 mph - N/A   Clear
7:15 AM 23.5 °F 14.5 °F 11.3 °F 60% 30.04 in 10.0 mi West 8.1 mph - N/A   Clear
7:35 AM 23.7 °F 12.1 °F 11.1 °F 59% 30.05 in 10.0 mi West 12.7 mph 18.4 mph N/A   Clear
7:55 AM 23.7 °F 11.0 °F 11.1 °F 59% 30.05 in 10.0 mi WNW 15.0 mph 20.7 mph N/A   Clear
8:15 AM 23.5 °F 10.8 °F 11.1 °F 59% 30.06 in 10.0 mi WNW 15.0 mph 25.3 mph N/A   Clear
8:35 AM 23.9 °F 10.8 °F 10.6 °F 57% 30.07 in 10.0 mi West 16.1 mph 21.9 mph N/A   Clear
8:55 AM 24.4 °F 11.0 °F 10.6 °F 56% 30.08 in 10.0 mi West 17.3 mph 21.9 mph N/A   Clear
9:15 AM 24.6 °F 12.2 °F 10.6 °F 55% 30.09 in 10.0 mi West 15.0 mph 21.9 mph N/A   Clear
9:35 AM 24.6 °F 12.2 °F 10.8 °F 56% 30.10 in 10.0 mi West 15.0 mph 23.0 mph N/A   Clear
9:55 AM 24.8 °F 13.4 °F 10.6 °F 55% 30.10 in 10.0 mi West 12.7 mph 21.9 mph N/A   Clear
10:15 AM 25.9 °F 14.3 °F 10.8 °F 53% 30.10 in 10.0 mi West 13.8 mph 17.3 mph N/A   Clear
10:35 AM 26.4 °F 15.0 °F 10.0 °F 50% 30.11 in 10.0 mi West 13.8 mph 20.7 mph N/A   Clear
10:55 AM 28.0 °F 19.3 °F 10.2 °F 47% 30.11 in 10.0 mi West 9.2 mph 17.3 mph N/A   Clear
11:15 AM 28.8 °F 20.2 °F 10.2 °F 46% 30.11 in 10.0 mi West 9.2 mph 16.1 mph N/A   Clear
11:35 AM 28.9 °F 18.2 °F 8.6 °F 42% 30.11 in 10.0 mi West 13.8 mph 20.7 mph N/A   Clear
11:55 AM 29.8 °F 20.3 °F 8.1 °F 40% 30.12 in 10.0 mi West 11.5 mph 18.4 mph N/A   Clear
12:15 PM 30.2 °F 20.2 °F 6.4 °F 37% 30.11 in 10.0 mi West 12.7 mph 21.9 mph N/A   Clear
12:35 PM 30.9 °F 20.2 °F 7.0 °F 37% 30.12 in 10.0 mi West 15.0 mph 25.3 mph N/A   Clear
12:55 PM 31.8 °F 22.3 °F 7.9 °F 37% 30.12 in 10.0 mi WNW 12.7 mph 23.0 mph N/A   Clear
1:15 PM 32.0 °F 21.6 °F 8.8 °F 38% 30.13 in 10.0 mi WNW 15.0 mph 23.0 mph N/A   Clear
1:35 PM 32.0 °F 22.1 °F 9.9 °F 40% 30.14 in 10.0 mi WNW 13.8 mph 18.4 mph N/A   Clear
1:55 PM 32.4 °F 22.1 °F 10.6 °F 40% 30.14 in 10.0 mi WNW 15.0 mph 19.6 mph N/A   Clear
2:15 PM 32.5 °F 24.2 °F 10.4 °F 40% 30.14 in 10.0 mi WNW 10.4 mph 17.3 mph N/A   Clear
2:35 PM 32.9 °F 24.7 °F 10.0 °F 39% 30.15 in 10.0 mi WNW 10.4 mph 18.4 mph N/A   Clear
2:55 PM 33.1 °F 23.4 °F 10.9 °F 40% 30.16 in 10.0 mi NW 13.8 mph 20.7 mph N/A   Clear
3:15 PM 33.3 °F 24.6 °F 10.8 °F 39% 30.15 in 10.0 mi WNW 11.5 mph 16.1 mph N/A   Clear
3:35 PM 33.8 °F 24.3 °F 11.1 °F 39% 30.15 in 10.0 mi WNW 13.8 mph 20.7 mph N/A   Clear
3:55 PM 33.4 °F 23.9 °F 11.1 °F 40% 30.16 in 10.0 mi WNW 13.8 mph 20.7 mph N/A   Clear
4:15 PM 33.1 °F 21.5 °F 11.1 °F 40% 30.16 in 10.0 mi WNW 19.6 mph 24.2 mph N/A   Clear
4:35 PM 32.9 °F 24.1 °F 11.7 °F 41% 30.17 in 10.0 mi NW 11.5 mph 24.2 mph N/A   Clear
4:55 PM 32.4 °F 23.5 °F 12.0 °F 43% 30.17 in 10.0 mi WNW 11.5 mph 21.9 mph N/A   Clear
5:15 PM 31.8 °F 22.3 °F 12.4 °F 45% 30.18 in 10.0 mi WNW 12.7 mph 19.6 mph N/A   Clear
5:35 PM 31.1 °F 23.1 °F 13.1 °F 47% 30.18 in 10.0 mi WNW 9.2 mph 16.1 mph N/A   Clear
5:55 PM 31.1 °F 20.1 °F 14.0 °F 49% 30.19 in 10.0 mi NW 16.1 mph 21.9 mph N/A   Clear
6:15 PM 30.6 °F 22.4 °F 15.8 °F 54% 30.19 in 10.0 mi NNW 9.2 mph 19.6 mph N/A   Clear
6:35 PM 30.2 °F 21.9 °F 16.5 °F 57% 30.20 in 10.0 mi WNW 9.2 mph - N/A   Clear
6:55 PM 30.2 °F 20.2 °F 17.4 °F 59% 30.20 in 10.0 mi NW 12.7 mph 32.2 mph N/A   Clear
7:15 PM 30.4 °F 20.5 °F 17.6 °F 59% 30.20 in 10.0 mi NW 12.7 mph 19.6 mph N/A   Clear
7:35 PM 30.7 °F 27.3 °F 17.6 °F 58% 30.21 in 10.0 mi NW 3.5 mph 17.3 mph N/A   Scattered Clouds
7:55 PM 30.7 °F 23.3 °F 17.4 °F 58% 30.21 in 10.0 mi NW 8.1 mph 20.7 mph N/A   Scattered Clouds
8:15 PM 30.2 °F 22.6 °F 17.6 °F 60% 30.22 in 10.0 mi WNW 8.1 mph - N/A   Scattered Clouds
8:35 PM 30.2 °F 21.3 °F 17.6 °F 60% 30.23 in 10.0 mi WNW 10.4 mph - N/A   Scattered Clouds
8:55 PM 29.8 °F 22.2 °F 17.6 °F 60% 30.23 in 10.0 mi West 8.1 mph - N/A   Scattered Clouds
9:15 PM 28.9 °F 21.1 °F 17.8 °F 63% 30.23 in 10.0 mi West 8.1 mph - N/A   Scattered Clouds
9:35 PM 28.9 °F 21.1 °F 17.6 °F 63% 30.23 in 10.0 mi WNW 8.1 mph - N/A   Clear
9:55 PM 28.2 °F 20.2 °F 17.8 °F 65% 30.24 in 10.0 mi WNW 8.1 mph - N/A   Clear
10:15 PM 28.0 °F 18.6 °F 17.8 °F 65% 30.25 in 10.0 mi West 10.4 mph - N/A   Clear
10:35 PM 28.0 °F 21.7 °F 17.6 °F 65% 30.25 in 10.0 mi WNW 5.8 mph - N/A   Clear
10:55 PM 27.5 °F 22.2 °F 17.6 °F 66% 30.25 in 10.0 mi West 4.6 mph - N/A   Clear
11:15 PM 27.1 °F 20.7 °F 18.0 °F 68% 30.26 in 10.0 mi NW 5.8 mph - N/A   Clear
11:35 PM 27.1 °F - 17.6 °F 67% 30.27 in 10.0 mi Calm Calm - N/A   Clear
11:55 PM 25.7 °F 21.5 °F 17.4 °F 71% 30.27 in 10.0 mi NNW 3.5 mph - N/A   Clear